sensor_id;sensor_type;location;lat;lon;timestamp;P1;durP1;ratioP1;P2;durP2;ratioP2
30384;SDS011;17181;51.002;4.096;2023-08-06T00:01:55;1.40;;;0.97;;
30384;SDS011;17181;51.002;4.096;2023-08-06T00:04:21;1.00;;;0.87;;
30384;SDS011;17181;51.002;4.096;2023-08-06T00:06:47;2.37;;;1.30;;
30384;SDS011;17181;51.002;4.096;2023-08-06T00:09:13;2.60;;;1.40;;
30384;SDS011;17181;51.002;4.096;2023-08-06T00:11:39;2.90;;;1.53;;
30384;SDS011;17181;51.002;4.096;2023-08-06T00:14:06;4.90;;;1.50;;
30384;SDS011;17181;51.002;4.096;2023-08-06T00:16:32;4.30;;;1.50;;
30384;SDS011;17181;51.002;4.096;2023-08-06T00:18:58;5.60;;;1.50;;
30384;SDS011;17181;51.002;4.096;2023-08-06T00:21:23;2.60;;;1.60;;
30384;SDS011;17181;51.002;4.096;2023-08-06T00:23:49;3.23;;;1.63;;
30384;SDS011;17181;51.002;4.096;2023-08-06T00:26:15;4.10;;;1.40;;
30384;SDS011;17181;51.002;4.096;2023-08-06T00:28:42;4.43;;;1.80;;
30384;SDS011;17181;51.002;4.096;2023-08-06T00:31:07;2.37;;;1.53;;
30384;SDS011;17181;51.002;4.096;2023-08-06T00:33:33;2.93;;;1.43;;
30384;SDS011;17181;51.002;4.096;2023-08-06T00:35:59;3.27;;;1.87;;
30384;SDS011;17181;51.002;4.096;2023-08-06T00:38:25;2.40;;;2.03;;
30384;SDS011;17181;51.002;4.096;2023-08-06T00:40:51;6.20;;;2.30;;
30384;SDS011;17181;51.002;4.096;2023-08-06T00:43:18;4.50;;;1.97;;
30384;SDS011;17181;51.002;4.096;2023-08-06T00:45:44;1.73;;;1.63;;
30384;SDS011;17181;51.002;4.096;2023-08-06T00:48:10;1.73;;;1.60;;
30384;SDS011;17181;51.002;4.096;2023-08-06T00:50:36;8.60;;;2.90;;
30384;SDS011;17181;51.002;4.096;2023-08-06T00:53:02;9.33;;;2.17;;
30384;SDS011;17181;51.002;4.096;2023-08-06T00:55:28;4.87;;;2.87;;
30384;SDS011;17181;51.002;4.096;2023-08-06T00:57:54;4.43;;;2.10;;
30384;SDS011;17181;51.002;4.096;2023-08-06T01:00:21;3.10;;;2.47;;
30384;SDS011;17181;51.002;4.096;2023-08-06T01:02:48;3.23;;;2.77;;
30384;SDS011;17181;51.002;4.096;2023-08-06T01:05:14;4.20;;;3.10;;
30384;SDS011;17181;51.002;4.096;2023-08-06T01:13:42;3.37;;;2.70;;
30384;SDS011;17181;51.002;4.096;2023-08-06T01:16:15;7.87;;;2.83;;
30384;SDS011;17181;51.002;4.096;2023-08-06T01:18:43;4.30;;;2.33;;
30384;SDS011;17181;51.002;4.096;2023-08-06T01:21:14;6.00;;;2.67;;
30384;SDS011;17181;51.002;4.096;2023-08-06T01:23:44;5.70;;;4.80;;
30384;SDS011;17181;51.002;4.096;2023-08-06T01:32:18;4.43;;;2.10;;
30384;SDS011;17181;51.002;4.096;2023-08-06T01:34:46;5.03;;;2.47;;
30384;SDS011;17181;51.002;4.096;2023-08-06T01:37:13;2.13;;;1.87;;
30384;SDS011;17181;51.002;4.096;2023-08-06T01:39:39;8.90;;;2.43;;
30384;SDS011;17181;51.002;4.096;2023-08-06T01:42:08;3.23;;;2.13;;
30384;SDS011;17181;51.002;4.096;2023-08-06T01:44:34;2.97;;;2.67;;
30384;SDS011;17181;51.002;4.096;2023-08-06T01:47:00;6.83;;;3.30;;
30384;SDS011;17181;51.002;4.096;2023-08-06T01:49:25;2.93;;;2.63;;
30384;SDS011;17181;51.002;4.096;2023-08-06T01:51:53;6.57;;;2.60;;
30384;SDS011;17181;51.002;4.096;2023-08-06T01:54:18;2.97;;;2.73;;
30384;SDS011;17181;51.002;4.096;2023-08-06T01:56:44;5.60;;;3.00;;
30384;SDS011;17181;51.002;4.096;2023-08-06T01:59:10;3.30;;;2.87;;
30384;SDS011;17181;51.002;4.096;2023-08-06T02:01:36;8.70;;;3.17;;
30384;SDS011;17181;51.002;4.096;2023-08-06T02:04:02;6.33;;;3.40;;
30384;SDS011;17181;51.002;4.096;2023-08-06T02:06:28;3.50;;;2.53;;
30384;SDS011;17181;51.002;4.096;2023-08-06T02:08:54;3.67;;;3.07;;
30384;SDS011;17181;51.002;4.096;2023-08-06T02:11:20;4.73;;;2.90;;
30384;SDS011;17181;51.002;4.096;2023-08-06T02:13:46;6.67;;;2.70;;
30384;SDS011;17181;51.002;4.096;2023-08-06T02:16:17;4.47;;;2.77;;
30384;SDS011;17181;51.002;4.096;2023-08-06T02:18:43;9.57;;;3.77;;
30384;SDS011;17181;51.002;4.096;2023-08-06T02:21:09;9.43;;;3.23;;
30384;SDS011;17181;51.002;4.096;2023-08-06T02:23:34;4.73;;;3.30;;
30384;SDS011;17181;51.002;4.096;2023-08-06T02:26:03;9.33;;;4.13;;
30384;SDS011;17181;51.002;4.096;2023-08-06T02:28:32;6.07;;;3.60;;
30384;SDS011;17181;51.002;4.096;2023-08-06T02:30:58;3.87;;;2.63;;
30384;SDS011;17181;51.002;4.096;2023-08-06T02:33:24;6.33;;;3.00;;
30384;SDS011;17181;51.002;4.096;2023-08-06T02:35:50;5.70;;;3.63;;
30384;SDS011;17181;51.002;4.096;2023-08-06T02:38:16;7.63;;;3.23;;
30384;SDS011;17181;51.002;4.096;2023-08-06T02:40:45;8.97;;;4.50;;
30384;SDS011;17181;51.002;4.096;2023-08-06T02:43:14;9.40;;;4.47;;
30384;SDS011;17181;51.002;4.096;2023-08-06T02:45:41;5.50;;;4.10;;
30384;SDS011;17181;51.002;4.096;2023-08-06T02:48:07;7.23;;;1.80;;
30384;SDS011;17181;51.002;4.096;2023-08-06T02:50:40;5.93;;;1.80;;
30384;SDS011;17181;51.002;4.096;2023-08-06T02:53:11;1.10;;;0.77;;
30384;SDS011;17181;51.002;4.096;2023-08-06T02:55:46;4.53;;;2.90;;
30384;SDS011;17181;51.002;4.096;2023-08-06T03:07:40;2.87;;;1.50;;
30384;SDS011;17181;51.002;4.096;2023-08-06T03:20:20;3.27;;;0.87;;
30384;SDS011;17181;51.002;4.096;2023-08-06T03:22:57;1.63;;;1.00;;
30384;SDS011;17181;51.002;4.096;2023-08-06T03:25:23;2.37;;;0.67;;
30384;SDS011;17181;51.002;4.096;2023-08-06T03:27:51;1.80;;;0.80;;
30384;SDS011;17181;51.002;4.096;2023-08-06T03:30:18;0.90;;;0.90;;
30384;SDS011;17181;51.002;4.096;2023-08-06T03:32:47;3.17;;;0.93;;
30384;SDS011;17181;51.002;4.096;2023-08-06T03:35:19;1.97;;;0.27;;
30384;SDS011;17181;51.002;4.096;2023-08-06T03:37:48;0.37;;;0.37;;
30384;SDS011;17181;51.002;4.096;2023-08-06T03:40:15;1.10;;;1.00;;
30384;SDS011;17181;51.002;4.096;2023-08-06T03:42:41;6.17;;;1.60;;
30384;SDS011;17181;51.002;4.096;2023-08-06T03:45:07;0.23;;;0.23;;
30384;SDS011;17181;51.002;4.096;2023-08-06T03:47:34;1.20;;;1.10;;
30384;SDS011;17181;51.002;4.096;2023-08-06T03:50:01;1.50;;;1.10;;
30384;SDS011;17181;51.002;4.096;2023-08-06T03:52:28;1.10;;;0.50;;
30384;SDS011;17181;51.002;4.096;2023-08-06T03:54:54;0.70;;;0.70;;
30384;SDS011;17181;51.002;4.096;2023-08-06T03:57:21;0.60;;;0.60;;
30384;SDS011;17181;51.002;4.096;2023-08-06T03:59:47;1.23;;;1.10;;
30384;SDS011;17181;51.002;4.096;2023-08-06T04:02:13;0.50;;;0.50;;
30384;SDS011;17181;51.002;4.096;2023-08-06T04:04:39;0.90;;;0.90;;
30384;SDS011;17181;51.002;4.096;2023-08-06T04:07:05;0.50;;;0.47;;
30384;SDS011;17181;51.002;4.096;2023-08-06T04:09:31;1.20;;;1.07;;
30384;SDS011;17181;51.002;4.096;2023-08-06T04:11:56;1.80;;;0.67;;
30384;SDS011;17181;51.002;4.096;2023-08-06T04:14:24;0.70;;;0.70;;
30384;SDS011;17181;51.002;4.096;2023-08-06T04:16:51;2.07;;;1.43;;
30384;SDS011;17181;51.002;4.096;2023-08-06T04:19:17;0.77;;;0.63;;
30384;SDS011;17181;51.002;4.096;2023-08-06T04:21:42;2.23;;;2.03;;
30384;SDS011;17181;51.002;4.096;2023-08-06T04:24:12;4.93;;;1.30;;
30384;SDS011;17181;51.002;4.096;2023-08-06T04:26:39;1.07;;;0.97;;
30384;SDS011;17181;51.002;4.096;2023-08-06T04:29:04;1.57;;;1.00;;
30384;SDS011;17181;51.002;4.096;2023-08-06T04:31:31;1.23;;;1.03;;
30384;SDS011;17181;51.002;4.096;2023-08-06T04:34:00;4.80;;;2.50;;
30384;SDS011;17181;51.002;4.096;2023-08-06T04:36:27;4.87;;;2.10;;
30384;SDS011;17181;51.002;4.096;2023-08-06T04:38:53;3.50;;;1.87;;
30384;SDS011;17181;51.002;4.096;2023-08-06T04:41:18;3.33;;;2.03;;
30384;SDS011;17181;51.002;4.096;2023-08-06T04:43:44;2.80;;;1.77;;
30384;SDS011;17181;51.002;4.096;2023-08-06T04:46:11;2.53;;;2.07;;
30384;SDS011;17181;51.002;4.096;2023-08-06T04:48:37;9.20;;;2.40;;
30384;SDS011;17181;51.002;4.096;2023-08-06T04:51:03;2.73;;;2.47;;
30384;SDS011;17181;51.002;4.096;2023-08-06T04:53:28;1.07;;;0.83;;
30384;SDS011;17181;51.002;4.096;2023-08-06T04:55:54;4.67;;;1.73;;
30384;SDS011;17181;51.002;4.096;2023-08-06T04:58:20;0.10;;;0.10;;
30384;SDS011;17181;51.002;4.096;2023-08-06T05:00:46;0.20;;;0.20;;
30384;SDS011;17181;51.002;4.096;2023-08-06T05:03:12;1.93;;;1.37;;
30384;SDS011;17181;51.002;4.096;2023-08-06T05:05:39;0.87;;;0.87;;
30384;SDS011;17181;51.002;4.096;2023-08-06T05:08:06;4.83;;;1.77;;
30384;SDS011;17181;51.002;4.096;2023-08-06T05:10:32;3.10;;;1.13;;
30384;SDS011;17181;51.002;4.096;2023-08-06T05:12:59;4.00;;;1.93;;
30384;SDS011;17181;51.002;4.096;2023-08-06T05:15:29;1.03;;;0.93;;
30384;SDS011;17181;51.002;4.096;2023-08-06T05:17:55;3.60;;;1.67;;
30384;SDS011;17181;51.002;4.096;2023-08-06T05:20:20;0.40;;;0.40;;
30384;SDS011;17181;51.002;4.096;2023-08-06T05:22:46;9.00;;;1.33;;
30384;SDS011;17181;51.002;4.096;2023-08-06T05:25:13;7.07;;;1.77;;
30384;SDS011;17181;51.002;4.096;2023-08-06T05:27:40;8.17;;;1.90;;
30384;SDS011;17181;51.002;4.096;2023-08-06T05:30:06;4.97;;;2.00;;
30384;SDS011;17181;51.002;4.096;2023-08-06T05:32:32;3.33;;;2.07;;
30384;SDS011;17181;51.002;4.096;2023-08-06T05:34:59;3.13;;;2.13;;
30384;SDS011;17181;51.002;4.096;2023-08-06T05:37:25;4.57;;;2.23;;
30384;SDS011;17181;51.002;4.096;2023-08-06T05:39:54;7.83;;;1.40;;
30384;SDS011;17181;51.002;4.096;2023-08-06T05:42:20;1.23;;;1.13;;
30384;SDS011;17181;51.002;4.096;2023-08-06T05:44:46;3.43;;;0.50;;
30384;SDS011;17181;51.002;4.096;2023-08-06T05:47:11;0.83;;;0.83;;
30384;SDS011;17181;51.002;4.096;2023-08-06T05:49:37;5.40;;;2.77;;
30384;SDS011;17181;51.002;4.096;2023-08-06T05:52:03;4.93;;;1.50;;
30384;SDS011;17181;51.002;4.096;2023-08-06T05:54:31;13.43;;;4.13;;
30384;SDS011;17181;51.002;4.096;2023-08-06T05:56:57;7.13;;;2.83;;
30384;SDS011;17181;51.002;4.096;2023-08-06T05:59:23;2.23;;;1.37;;
30384;SDS011;17181;51.002;4.096;2023-08-06T06:01:48;5.70;;;3.27;;
30384;SDS011;17181;51.002;4.096;2023-08-06T06:04:14;8.23;;;1.80;;
30384;SDS011;17181;51.002;4.096;2023-08-06T06:06:40;2.57;;;2.00;;
30384;SDS011;17181;51.002;4.096;2023-08-06T06:09:07;1.57;;;1.47;;
30384;SDS011;17181;51.002;4.096;2023-08-06T06:11:32;7.43;;;1.10;;
30384;SDS011;17181;51.002;4.096;2023-08-06T06:14:00;1.87;;;1.37;;
30384;SDS011;17181;51.002;4.096;2023-08-06T06:16:26;2.13;;;1.73;;
30384;SDS011;17181;51.002;4.096;2023-08-06T06:18:52;1.03;;;1.03;;
30384;SDS011;17181;51.002;4.096;2023-08-06T06:21:19;6.30;;;1.13;;
30384;SDS011;17181;51.002;4.096;2023-08-06T06:23:45;1.93;;;1.03;;
30384;SDS011;17181;51.002;4.096;2023-08-06T06:26:12;1.13;;;1.03;;
30384;SDS011;17181;51.002;4.096;2023-08-06T06:28:38;8.83;;;0.57;;
30384;SDS011;17181;51.002;4.096;2023-08-06T06:31:04;4.63;;;1.10;;
30384;SDS011;17181;51.002;4.096;2023-08-06T06:33:29;23.83;;;0.77;;
30384;SDS011;17181;51.002;4.096;2023-08-06T06:35:55;1.17;;;0.87;;
30384;SDS011;17181;51.002;4.096;2023-08-06T06:38:21;2.07;;;0.73;;
30384;SDS011;17181;51.002;4.096;2023-08-06T06:40:54;0.67;;;0.53;;
30384;SDS011;17181;51.002;4.096;2023-08-06T06:43:20;0.87;;;0.83;;
30384;SDS011;17181;51.002;4.096;2023-08-06T06:45:46;0.80;;;0.60;;
30384;SDS011;17181;51.002;4.096;2023-08-06T06:48:17;2.53;;;0.50;;
30384;SDS011;17181;51.002;4.096;2023-08-06T06:50:42;1.97;;;0.50;;
30384;SDS011;17181;51.002;4.096;2023-08-06T06:53:12;0.17;;;0.17;;
30384;SDS011;17181;51.002;4.096;2023-08-06T06:55:37;1.13;;;0.43;;
30384;SDS011;17181;51.002;4.096;2023-08-06T06:58:04;0.03;;;0.03;;
30384;SDS011;17181;51.002;4.096;2023-08-06T07:00:30;2.63;;;1.27;;
30384;SDS011;17181;51.002;4.096;2023-08-06T07:02:55;1.03;;;0.57;;
30384;SDS011;17181;51.002;4.096;2023-08-06T07:05:21;0.80;;;0.50;;
30384;SDS011;17181;51.002;4.096;2023-08-06T07:07:47;0.63;;;0.47;;
30384;SDS011;17181;51.002;4.096;2023-08-06T07:10:13;4.13;;;0.70;;
30384;SDS011;17181;51.002;4.096;2023-08-06T07:12:39;2.20;;;0.53;;
30384;SDS011;17181;51.002;4.096;2023-08-06T07:15:08;5.00;;;0.57;;
30384;SDS011;17181;51.002;4.096;2023-08-06T07:17:35;0.77;;;0.50;;
30384;SDS011;17181;51.002;4.096;2023-08-06T07:20:00;1.97;;;0.47;;
30384;SDS011;17181;51.002;4.096;2023-08-06T07:22:26;1.13;;;0.57;;
30384;SDS011;17181;51.002;4.096;2023-08-06T07:24:52;0.10;;;0.10;;
30384;SDS011;17181;51.002;4.096;2023-08-06T07:27:18;11.13;;;0.80;;
30384;SDS011;17181;51.002;4.096;2023-08-06T07:29:44;0.20;;;0.20;;
30384;SDS011;17181;51.002;4.096;2023-08-06T07:32:09;1.00;;;0.63;;
30384;SDS011;17181;51.002;4.096;2023-08-06T07:34:35;11.37;;;1.27;;
30384;SDS011;17181;51.002;4.096;2023-08-06T07:37:01;0.20;;;0.20;;
30384;SDS011;17181;51.002;4.096;2023-08-06T07:39:27;3.50;;;0.70;;
30384;SDS011;17181;51.002;4.096;2023-08-06T07:41:53;4.40;;;1.10;;
30384;SDS011;17181;51.002;4.096;2023-08-06T07:44:19;3.60;;;1.10;;
30384;SDS011;17181;51.002;4.096;2023-08-06T07:46:52;0.33;;;0.30;;
30384;SDS011;17181;51.002;4.096;2023-08-06T07:49:18;2.37;;;0.87;;
30384;SDS011;17181;51.002;4.096;2023-08-06T07:51:46;1.70;;;0.80;;
30384;SDS011;17181;51.002;4.096;2023-08-06T07:54:12;4.00;;;0.63;;
30384;SDS011;17181;51.002;4.096;2023-08-06T07:56:37;5.30;;;1.00;;
30384;SDS011;17181;51.002;4.096;2023-08-06T07:59:04;0.07;;;0.07;;
30384;SDS011;17181;51.002;4.096;2023-08-06T08:01:30;0.30;;;0.27;;
30384;SDS011;17181;51.002;4.096;2023-08-06T08:03:56;0.50;;;0.50;;
30384;SDS011;17181;51.002;4.096;2023-08-06T08:06:27;0.17;;;0.17;;
30384;SDS011;17181;51.002;4.096;2023-08-06T08:08:59;0.97;;;0.30;;
30384;SDS011;17181;51.002;4.096;2023-08-06T08:11:25;1.53;;;0.70;;
30384;SDS011;17181;51.002;4.096;2023-08-06T08:13:51;0.30;;;0.30;;
30384;SDS011;17181;51.002;4.096;2023-08-06T08:16:17;0.30;;;0.30;;
30384;SDS011;17181;51.002;4.096;2023-08-06T08:18:43;0.47;;;0.47;;
30384;SDS011;17181;51.002;4.096;2023-08-06T08:21:09;2.63;;;0.33;;
30384;SDS011;17181;51.002;4.096;2023-08-06T08:23:35;2.43;;;1.30;;
30384;SDS011;17181;51.002;4.096;2023-08-06T08:26:01;0.93;;;0.87;;
30384;SDS011;17181;51.002;4.096;2023-08-06T08:28:27;2.23;;;1.30;;
30384;SDS011;17181;51.002;4.096;2023-08-06T08:30:53;0.87;;;0.30;;
30384;SDS011;17181;51.002;4.096;2023-08-06T08:33:20;0.40;;;0.20;;
30384;SDS011;17181;51.002;4.096;2023-08-06T08:35:46;2.07;;;0.70;;
30384;SDS011;17181;51.002;4.096;2023-08-06T08:38:12;2.80;;;0.43;;
30384;SDS011;17181;51.002;4.096;2023-08-06T08:40:45;0.20;;;0.20;;
30384;SDS011;17181;51.002;4.096;2023-08-06T08:43:14;2.07;;;0.13;;
30384;SDS011;17181;51.002;4.096;2023-08-06T08:45:44;1.80;;;0.10;;
30384;SDS011;17181;51.002;4.096;2023-08-06T08:48:14;4.07;;;0.40;;
30384;SDS011;17181;51.002;4.096;2023-08-06T08:50:42;2.83;;;0.60;;
30384;SDS011;17181;51.002;4.096;2023-08-06T08:53:10;3.60;;;1.07;;
30384;SDS011;17181;51.002;4.096;2023-08-06T08:55:37;1.20;;;0.43;;
30384;SDS011;17181;51.002;4.096;2023-08-06T08:58:04;0.10;;;0.00;;
30384;SDS011;17181;51.002;4.096;2023-08-06T09:00:30;9.23;;;0.93;;
30384;SDS011;17181;51.002;4.096;2023-08-06T09:02:57;2.67;;;0.90;;
30384;SDS011;17181;51.002;4.096;2023-08-06T09:05:24;3.63;;;0.77;;
30384;SDS011;17181;51.002;4.096;2023-08-06T09:07:53;1.00;;;0.90;;
30384;SDS011;17181;51.002;4.096;2023-08-06T09:10:22;1.23;;;0.83;;
30384;SDS011;17181;51.002;4.096;2023-08-06T09:12:51;0.37;;;0.37;;
30384;SDS011;17181;51.002;4.096;2023-08-06T09:15:19;0.00;;;0.00;;
30384;SDS011;17181;51.002;4.096;2023-08-06T09:17:45;5.63;;;1.37;;
30384;SDS011;17181;51.002;4.096;2023-08-06T09:20:12;3.37;;;1.37;;
30384;SDS011;17181;51.002;4.096;2023-08-06T09:22:39;0.40;;;0.13;;
30384;SDS011;17181;51.002;4.096;2023-08-06T09:25:06;1.43;;;1.03;;
30384;SDS011;17181;51.002;4.096;2023-08-06T09:27:38;13.13;;;0.87;;
30384;SDS011;17181;51.002;4.096;2023-08-06T09:30:05;2.37;;;0.73;;
30384;SDS011;17181;51.002;4.096;2023-08-06T09:32:44;5.53;;;1.23;;
30384;SDS011;17181;51.002;4.096;2023-08-06T09:35:17;1.33;;;1.20;;
30384;SDS011;17181;51.002;4.096;2023-08-06T09:37:43;1.47;;;0.93;;
30384;SDS011;17181;51.002;4.096;2023-08-06T09:40:31;3.40;;;0.37;;
30384;SDS011;17181;51.002;4.096;2023-08-06T09:42:58;4.77;;;0.77;;
30384;SDS011;17181;51.002;4.096;2023-08-06T09:45:31;0.87;;;0.70;;
30384;SDS011;17181;51.002;4.096;2023-08-06T09:47:58;0.10;;;0.10;;
30384;SDS011;17181;51.002;4.096;2023-08-06T09:50:29;4.73;;;0.80;;
30384;SDS011;17181;51.002;4.096;2023-08-06T09:53:00;4.90;;;0.70;;
30384;SDS011;17181;51.002;4.096;2023-08-06T09:55:27;0.20;;;0.20;;
30384;SDS011;17181;51.002;4.096;2023-08-06T09:57:53;0.40;;;0.40;;
30384;SDS011;17181;51.002;4.096;2023-08-06T10:00:20;3.40;;;1.00;;
30384;SDS011;17181;51.002;4.096;2023-08-06T10:02:46;0.73;;;0.40;;
30384;SDS011;17181;51.002;4.096;2023-08-06T10:05:14;2.00;;;0.70;;
30384;SDS011;17181;51.002;4.096;2023-08-06T10:07:41;4.23;;;0.87;;
30384;SDS011;17181;51.002;4.096;2023-08-06T10:10:09;0.70;;;0.50;;
30384;SDS011;17181;51.002;4.096;2023-08-06T10:12:45;1.90;;;0.60;;
30384;SDS011;17181;51.002;4.096;2023-08-06T10:15:16;2.60;;;0.90;;
30384;SDS011;17181;51.002;4.096;2023-08-06T10:17:46;1.20;;;0.80;;
30384;SDS011;17181;51.002;4.096;2023-08-06T10:20:14;0.07;;;0.07;;
30384;SDS011;17181;51.002;4.096;2023-08-06T10:22:43;0.77;;;0.47;;
30384;SDS011;17181;51.002;4.096;2023-08-06T10:25:10;0.30;;;0.30;;
30384;SDS011;17181;51.002;4.096;2023-08-06T10:27:53;7.53;;;1.30;;
30384;SDS011;17181;51.002;4.096;2023-08-06T10:30:24;1.70;;;1.10;;
30384;SDS011;17181;51.002;4.096;2023-08-06T10:33:01;1.60;;;0.87;;
30384;SDS011;17181;51.002;4.096;2023-08-06T10:35:38;3.63;;;1.33;;
30384;SDS011;17181;51.002;4.096;2023-08-06T10:38:15;9.57;;;1.00;;
30384;SDS011;17181;51.002;4.096;2023-08-06T10:41:03;2.27;;;0.63;;
30384;SDS011;17181;51.002;4.096;2023-08-06T10:43:29;3.10;;;1.03;;
30384;SDS011;17181;51.002;4.096;2023-08-06T10:46:00;10.30;;;1.77;;
30384;SDS011;17181;51.002;4.096;2023-08-06T10:48:28;1.50;;;0.47;;
30384;SDS011;17181;51.002;4.096;2023-08-06T10:51:01;1.07;;;0.67;;
30384;SDS011;17181;51.002;4.096;2023-08-06T10:53:28;0.53;;;0.50;;
30384;SDS011;17181;51.002;4.096;2023-08-06T10:55:54;4.90;;;0.37;;
30384;SDS011;17181;51.002;4.096;2023-08-06T10:58:19;2.13;;;1.13;;
30384;SDS011;17181;51.002;4.096;2023-08-06T11:00:45;0.53;;;0.33;;
30384;SDS011;17181;51.002;4.096;2023-08-06T11:03:11;12.03;;;1.43;;
30384;SDS011;17181;51.002;4.096;2023-08-06T11:05:37;7.10;;;1.23;;
30384;SDS011;17181;51.002;4.096;2023-08-06T11:08:04;1.37;;;1.03;;
30384;SDS011;17181;51.002;4.096;2023-08-06T11:10:32;0.83;;;0.73;;
30384;SDS011;17181;51.002;4.096;2023-08-06T11:13:01;3.30;;;0.87;;
30384;SDS011;17181;51.002;4.096;2023-08-06T11:15:28;0.27;;;0.10;;
30384;SDS011;17181;51.002;4.096;2023-08-06T11:17:56;5.03;;;1.13;;
30384;SDS011;17181;51.002;4.096;2023-08-06T11:20:22;1.20;;;0.57;;
30384;SDS011;17181;51.002;4.096;2023-08-06T11:22:49;2.23;;;1.03;;
30384;SDS011;17181;51.002;4.096;2023-08-06T11:25:15;3.97;;;0.80;;
30384;SDS011;17181;51.002;4.096;2023-08-06T11:27:45;0.53;;;0.53;;
30384;SDS011;17181;51.002;4.096;2023-08-06T11:30:11;2.03;;;0.63;;
30384;SDS011;17181;51.002;4.096;2023-08-06T11:32:47;0.57;;;0.57;;
30384;SDS011;17181;51.002;4.096;2023-08-06T11:35:14;0.50;;;0.47;;
30384;SDS011;17181;51.002;4.096;2023-08-06T11:37:44;3.37;;;1.47;;
30384;SDS011;17181;51.002;4.096;2023-08-06T11:40:11;1.20;;;0.57;;
30384;SDS011;17181;51.002;4.096;2023-08-06T11:42:40;3.70;;;1.47;;
30384;SDS011;17181;51.002;4.096;2023-08-06T11:45:07;5.20;;;0.83;;
30384;SDS011;17181;51.002;4.096;2023-08-06T11:47:37;2.57;;;1.10;;
30384;SDS011;17181;51.002;4.096;2023-08-06T11:50:04;0.30;;;0.30;;
30384;SDS011;17181;51.002;4.096;2023-08-06T11:52:30;0.40;;;0.40;;
30384;SDS011;17181;51.002;4.096;2023-08-06T11:55:03;4.90;;;1.03;;
30384;SDS011;17181;51.002;4.096;2023-08-06T11:57:35;1.00;;;1.00;;
30384;SDS011;17181;51.002;4.096;2023-08-06T12:00:03;4.57;;;0.83;;
30384;SDS011;17181;51.002;4.096;2023-08-06T12:02:48;2.67;;;1.20;;
30384;SDS011;17181;51.002;4.096;2023-08-06T12:05:19;3.53;;;0.53;;
30384;SDS011;17181;51.002;4.096;2023-08-06T12:07:47;1.27;;;0.93;;
30384;SDS011;17181;51.002;4.096;2023-08-06T12:10:14;1.43;;;0.97;;
30384;SDS011;17181;51.002;4.096;2023-08-06T12:12:47;1.80;;;0.90;;
30384;SDS011;17181;51.002;4.096;2023-08-06T12:15:19;1.13;;;0.40;;
30384;SDS011;17181;51.002;4.096;2023-08-06T12:17:45;4.17;;;1.60;;
30384;SDS011;17181;51.002;4.096;2023-08-06T12:20:14;1.10;;;0.60;;
30384;SDS011;17181;51.002;4.096;2023-08-06T12:22:44;6.00;;;1.40;;
30384;SDS011;17181;51.002;4.096;2023-08-06T12:25:11;1.47;;;1.13;;
30384;SDS011;17181;51.002;4.096;2023-08-06T12:27:38;1.63;;;1.00;;
30384;SDS011;17181;51.002;4.096;2023-08-06T12:30:05;3.30;;;0.50;;
30384;SDS011;17181;51.002;4.096;2023-08-06T12:32:34;1.00;;;0.47;;
30384;SDS011;17181;51.002;4.096;2023-08-06T12:35:04;2.17;;;1.00;;
30384;SDS011;17181;51.002;4.096;2023-08-06T12:37:32;4.80;;;0.90;;
30384;SDS011;17181;51.002;4.096;2023-08-06T12:39:58;1.03;;;0.60;;
30384;SDS011;17181;51.002;4.096;2023-08-06T12:42:24;3.70;;;0.63;;
30384;SDS011;17181;51.002;4.096;2023-08-06T12:44:51;4.13;;;1.40;;
30384;SDS011;17181;51.002;4.096;2023-08-06T12:47:17;0.23;;;0.17;;
30384;SDS011;17181;51.002;4.096;2023-08-06T12:49:43;6.03;;;1.80;;
30384;SDS011;17181;51.002;4.096;2023-08-06T12:52:08;1.30;;;0.40;;
30384;SDS011;17181;51.002;4.096;2023-08-06T12:54:34;0.57;;;0.57;;
30384;SDS011;17181;51.002;4.096;2023-08-06T12:57:02;2.90;;;0.30;;
30384;SDS011;17181;51.002;4.096;2023-08-06T12:59:28;4.73;;;1.17;;
30384;SDS011;17181;51.002;4.096;2023-08-06T13:01:54;5.33;;;0.60;;
30384;SDS011;17181;51.002;4.096;2023-08-06T13:04:22;3.40;;;1.00;;
30384;SDS011;17181;51.002;4.096;2023-08-06T13:06:57;3.03;;;0.83;;
30384;SDS011;17181;51.002;4.096;2023-08-06T13:09:25;5.00;;;1.60;;
30384;SDS011;17181;51.002;4.096;2023-08-06T13:11:56;2.63;;;0.97;;
30384;SDS011;17181;51.002;4.096;2023-08-06T13:14:23;1.20;;;0.27;;
30384;SDS011;17181;51.002;4.096;2023-08-06T13:16:53;0.50;;;0.40;;
30384;SDS011;17181;51.002;4.096;2023-08-06T13:19:19;3.40;;;0.90;;
30384;SDS011;17181;51.002;4.096;2023-08-06T14:01:12;2.57;;;1.20;;
30384;SDS011;17181;51.002;4.096;2023-08-06T17:38:16;3.07;;;1.20;;
30384;SDS011;17181;51.002;4.096;2023-08-06T17:40:42;3.00;;;0.67;;
30384;SDS011;17181;51.002;4.096;2023-08-06T17:43:08;3.80;;;0.90;;
30384;SDS011;17181;51.002;4.096;2023-08-06T17:45:34;3.80;;;1.20;;
30384;SDS011;17181;51.002;4.096;2023-08-06T17:48:01;7.97;;;1.37;;
30384;SDS011;17181;51.002;4.096;2023-08-06T17:50:27;5.90;;;1.13;;
30384;SDS011;17181;51.002;4.096;2023-08-06T17:52:52;2.00;;;0.93;;
30384;SDS011;17181;51.002;4.096;2023-08-06T17:55:19;3.87;;;1.37;;
30384;SDS011;17181;51.002;4.096;2023-08-06T17:57:44;1.67;;;0.83;;
30384;SDS011;17181;51.002;4.096;2023-08-06T18:00:10;3.67;;;0.67;;
30384;SDS011;17181;51.002;4.096;2023-08-06T18:02:36;4.70;;;0.87;;
30384;SDS011;17181;51.002;4.096;2023-08-06T18:05:03;6.43;;;0.83;;
30384;SDS011;17181;51.002;4.096;2023-08-06T18:07:29;2.40;;;1.10;;
30384;SDS011;17181;51.002;4.096;2023-08-06T18:09:55;7.17;;;2.73;;
30384;SDS011;17181;51.002;4.096;2023-08-06T18:12:20;0.60;;;0.43;;
30384;SDS011;17181;51.002;4.096;2023-08-06T18:14:46;2.10;;;0.43;;
30384;SDS011;17181;51.002;4.096;2023-08-06T18:17:12;0.90;;;0.63;;
30384;SDS011;17181;51.002;4.096;2023-08-06T18:19:39;8.00;;;1.47;;
30384;SDS011;17181;51.002;4.096;2023-08-06T18:22:05;4.13;;;0.83;;
30384;SDS011;17181;51.002;4.096;2023-08-06T18:24:30;0.63;;;0.50;;
30384;SDS011;17181;51.002;4.096;2023-08-06T18:27:00;10.80;;;1.47;;
30384;SDS011;17181;51.002;4.096;2023-08-06T18:29:26;5.10;;;1.13;;
30384;SDS011;17181;51.002;4.096;2023-08-06T18:31:56;2.73;;;1.30;;
30384;SDS011;17181;51.002;4.096;2023-08-06T18:34:27;3.43;;;1.73;;
30384;SDS011;17181;51.002;4.096;2023-08-06T18:36:56;6.40;;;2.07;;
30384;SDS011;17181;51.002;4.096;2023-08-06T18:39:22;5.93;;;2.00;;
30384;SDS011;17181;51.002;4.096;2023-08-06T18:41:49;1.03;;;0.87;;
30384;SDS011;17181;51.002;4.096;2023-08-06T18:44:15;4.03;;;1.03;;
30384;SDS011;17181;51.002;4.096;2023-08-06T18:46:41;2.77;;;1.33;;
30384;SDS011;17181;51.002;4.096;2023-08-06T18:49:07;0.57;;;0.40;;
30384;SDS011;17181;51.002;4.096;2023-08-06T18:57:27;3.00;;;1.60;;
30384;SDS011;17181;51.002;4.096;2023-08-06T18:59:55;2.10;;;0.93;;
30384;SDS011;17181;51.002;4.096;2023-08-06T19:02:21;8.90;;;1.67;;
30384;SDS011;17181;51.002;4.096;2023-08-06T19:04:46;0.20;;;0.20;;
30384;SDS011;17181;51.002;4.096;2023-08-06T19:10:26;3.23;;;1.50;;
30384;SDS011;17181;51.002;4.096;2023-08-06T19:16:21;1.33;;;0.73;;
30384;SDS011;17181;51.002;4.096;2023-08-06T19:26:10;2.10;;;0.73;;
30384;SDS011;17181;51.002;4.096;2023-08-06T19:28:36;1.33;;;1.20;;
30384;SDS011;17181;51.002;4.096;2023-08-06T19:31:02;4.03;;;0.87;;
30384;SDS011;17181;51.002;4.096;2023-08-06T19:33:29;2.27;;;1.37;;
30384;SDS011;17181;51.002;4.096;2023-08-06T19:36:05;7.17;;;1.60;;
30384;SDS011;17181;51.002;4.096;2023-08-06T19:38:34;2.93;;;0.70;;
30384;SDS011;17181;51.002;4.096;2023-08-06T19:41:07;3.40;;;1.30;;
30384;SDS011;17181;51.002;4.096;2023-08-06T19:43:37;2.97;;;1.10;;
30384;SDS011;17181;51.002;4.096;2023-08-06T19:46:03;5.90;;;1.03;;
30384;SDS011;17181;51.002;4.096;2023-08-06T19:48:31;4.63;;;0.80;;
30384;SDS011;17181;51.002;4.096;2023-08-06T19:50:58;10.20;;;1.00;;
30384;SDS011;17181;51.002;4.096;2023-08-06T19:53:31;0.20;;;0.20;;
30384;SDS011;17181;51.002;4.096;2023-08-06T19:55:58;5.73;;;1.87;;